Time;durP1;ratioP1;P1;durP2;ratioP2;P2;SDS_P1;SDS_P2;PMS_P1;PMS_P2;Temp;Humidity;BMP_temperature;BMP_pressure;BME280_temperature;BME280_humidity;BME280_pressure;Samples;Min_cycle;Max_cycle;Signal;HPM_P1;HPM_P2
2023/12/01 00:01:44;;;;;;;0.20;0.20;;;;;;;;;;5050969;28;20041;-81
2023/12/01 00:04:25;;;;;;;0.20;0.20;;;;;;;;;;5052607;28;20033;-81
2023/12/01 00:06:51;;;;;;;0.17;0.17;;;;;;;;;;5058662;28;20115;-82
2023/12/01 00:09:36;;;;;;;0.20;0.20;;;;;;;;;;5049800;28;20084;-83
2023/12/01 00:12:02;;;;;;;0.20;0.20;;;;;;;;;;5054395;28;20051;-82
2023/12/01 00:14:29;;;;;;;0.20;0.20;;;;;;;;;;5056887;28;20111;-83
2023/12/01 00:16:57;;;;;;;0.20;0.20;;;;;;;;;;5057061;28;20388;-82
2023/12/01 00:19:23;;;;;;;0.10;0.10;;;;;;;;;;5051663;28;20050;-81
2023/12/01 00:21:52;;;;;;;0.20;0.20;;;;;;;;;;5054983;28;20025;-82
2023/12/01 00:24:17;;;;;;;0.10;0.10;;;;;;;;;;5055280;28;20052;-84
2023/12/01 00:26:51;;;;;;;0.10;0.10;;;;;;;;;;5052277;28;20053;-84
2023/12/01 00:29:57;;;;;;;0.20;0.20;;;;;;;;;;5053852;28;20033;-83
2023/12/01 00:32:23;;;;;;;0.20;0.20;;;;;;;;;;5058524;28;20037;-83
2023/12/01 00:34:49;;;;;;;0.20;0.20;;;;;;;;;;5056176;28;20032;-81
2023/12/01 00:37:17;;;;;;;0.20;0.20;;;;;;;;;;5057827;28;20028;-81
2023/12/01 00:39:42;;;;;;;0.20;0.20;;;;;;;;;;5053080;28;20099;-83
2023/12/01 00:42:31;;;;;;;0.10;0.10;;;;;;;;;;5051690;28;21106;-83
2023/12/01 00:45:03;;;;;;;0.10;0.10;;;;;;;;;;5047251;28;20119;-80
2023/12/01 00:47:31;;;;;;;0.10;0.10;;;;;;;;;;5051193;28;20045;-81
2023/12/01 00:49:57;;;;;;;0.20;0.20;;;;;;;;;;5055478;28;20028;-81
2023/12/01 00:52:28;;;;;;;0.20;0.20;;;;;;;;;;5049661;28;20024;-82
2023/12/01 00:54:54;;;;;;;0.10;0.10;;;;;;;;;;5053432;28;20083;-81
2023/12/01 00:57:19;;;;;;;0.10;0.10;;;;;;;;;;5056039;28;20507;-82
2023/12/01 00:59:45;;;;;;;0.20;0.20;;;;;;;;;;5015324;28;20512;-82
2023/12/01 01:02:10;;;;;;;0.13;0.13;;;;;;;;;;5018464;28;20090;-82
2023/12/01 01:04:41;;;;;;;0.20;0.20;;;;;;;;;;5016998;28;20037;-82
2023/12/01 01:07:10;;;;;;;0.17;0.17;;;;;;;;;;5003452;28;20084;-81
2023/12/01 01:09:47;;;;;;;0.20;0.20;;;;;;;;;;5017216;28;20037;-81
2023/12/01 01:12:13;;;;;;;0.15;0.15;;;;;;;;;;5015823;28;20049;-81
2023/12/01 01:14:56;;;;;;;0.17;0.17;;;;;;;;;;5010334;28;20760;-80
2023/12/01 01:17:22;;;;;;;0.20;0.20;;;;;;;;;;5017245;28;20041;-82
2023/12/01 01:19:48;;;;;;;0.20;0.20;;;;;;;;;;5016200;28;20636;-81
2023/12/01 01:22:13;;;;;;;0.10;0.10;;;;;;;;;;5013061;28;20033;-81
2023/12/01 01:24:39;;;;;;;0.10;0.10;;;;;;;;;;5006373;28;20042;-81
2023/12/01 01:27:04;;;;;;;0.10;0.10;;;;;;;;;;5015420;28;20045;-81
2023/12/01 01:29:30;;;;;;;0.20;0.20;;;;;;;;;;5016748;28;20040;-81
2023/12/01 01:32:02;;;;;;;0.15;0.15;;;;;;;;;;5049961;28;20072;-81
2023/12/01 01:34:30;;;;;;;0.10;0.10;;;;;;;;;;5048908;28;20035;-82
2023/12/01 01:37:22;;;;;;;0.10;0.10;;;;;;;;;;5055671;28;20036;-82
2023/12/01 01:39:47;;;;;;;0.10;0.10;;;;;;;;;;5052283;28;20070;-82
2023/12/01 01:42:13;;;;;;;0.20;0.20;;;;;;;;;;5051162;28;20036;-81
2023/12/01 01:44:38;;;;;;;0.10;0.10;;;;;;;;;;5050290;28;20017;-81
2023/12/01 01:47:05;;;;;;;0.10;0.10;;;;;;;;;;5050392;28;20033;-81
2023/12/01 01:49:31;;;;;;;0.15;0.15;;;;;;;;;;5049070;28;20037;-82
2023/12/01 01:52:17;;;;;;;0.20;0.20;;;;;;;;;;5048917;28;20029;-81
2023/12/01 01:54:43;;;;;;;0.20;0.20;;;;;;;;;;5046782;28;20090;-81
2023/12/01 01:57:09;;;;;;;0.13;0.13;;;;;;;;;;5051910;28;20107;-81
2023/12/01 01:59:35;;;;;;;0.10;0.10;;;;;;;;;;5053100;28;20063;-81
2023/12/01 02:02:00;;;;;;;0.20;0.20;;;;;;;;;;5052012;28;20032;-81
2023/12/01 02:04:38;;;;;;;0.20;0.20;;;;;;;;;;5051218;28;20032;-80
2023/12/01 02:07:03;;;;;;;0.20;0.20;;;;;;;;;;5047934;28;20091;-81
2023/12/01 02:09:33;;;;;;;0.20;0.20;;;;;;;;;;5049288;28;20033;-81
2023/12/01 02:11:59;;;;;;;0.20;0.20;;;;;;;;;;5049395;28;20488;-82
2023/12/01 02:14:25;;;;;;;0.10;0.10;;;;;;;;;;5048174;28;20033;-81
2023/12/01 02:16:50;;;;;;;0.10;0.10;;;;;;;;;;5050912;28;20021;-81
2023/12/01 02:19:16;;;;;;;0.10;0.10;;;;;;;;;;5049797;28;20020;-80
2023/12/01 02:21:47;;;;;;;0.10;0.10;;;;;;;;;;5051206;28;20036;-81
2023/12/01 02:24:14;;;;;;;0.10;0.10;;;;;;;;;;5049885;28;20540;-82
2023/12/01 02:26:39;;;;;;;0.10;0.10;;;;;;;;;;5052344;28;20048;-79
2023/12/01 02:29:08;;;;;;;0.20;0.20;;;;;;;;;;5049468;28;20040;-80
2023/12/01 02:31:37;;;;;;;0.15;0.15;;;;;;;;;;5054291;28;20353;-82
2023/12/01 02:34:03;;;;;;;0.20;0.20;;;;;;;;;;5055027;28;20103;-80
2023/12/01 02:36:28;;;;;;;0.20;0.20;;;;;;;;;;5056245;28;20109;-80
2023/12/01 02:38:54;;;;;;;0.20;0.20;;;;;;;;;;5060377;28;20060;-80
2023/12/01 02:41:19;;;;;;;0.20;0.20;;;;;;;;;;5051199;28;20503;-81
2023/12/01 02:43:45;;;;;;;0.10;0.10;;;;;;;;;;5051350;28;20960;-82
2023/12/01 02:46:12;;;;;;;0.10;0.10;;;;;;;;;;5055394;28;20045;-83
2023/12/01 02:48:41;;;;;;;0.20;0.20;;;;;;;;;;5055677;28;20116;-82
2023/12/01 02:51:07;;;;;;;0.20;0.20;;;;;;;;;;5054122;28;20980;-81
2023/12/01 02:53:33;;;;;;;0.10;0.10;;;;;;;;;;5053972;28;20047;-83
2023/12/01 02:55:59;;;;;;;0.10;0.10;;;;;;;;;;5053873;28;20024;-83
2023/12/01 02:58:24;;;;;;;0.20;0.20;;;;;;;;;;5053761;28;20429;-81
2023/12/01 03:00:53;;;;;;;0.20;0.20;;;;;;;;;;5052736;28;20131;-81
2023/12/01 03:03:18;;;;;;;0.20;0.20;;;;;;;;;;5051533;28;20028;-81
2023/12/01 03:05:52;;;;;;;0.20;0.20;;;;;;;;;;5052280;28;20393;-81
2023/12/01 03:08:18;;;;;;;0.13;0.13;;;;;;;;;;5052562;28;20077;-80
2023/12/01 03:10:44;;;;;;;0.10;0.10;;;;;;;;;;5051764;28;20037;-80
2023/12/01 03:13:09;;;;;;;0.10;0.10;;;;;;;;;;5053354;28;20021;-81
2023/12/01 03:15:37;;;;;;;0.13;0.13;;;;;;;;;;5047869;28;20025;-82
2023/12/01 03:18:03;;;;;;;0.17;0.17;;;;;;;;;;5051085;28;20029;-81
2023/12/01 03:20:29;;;;;;;0.20;0.20;;;;;;;;;;5054298;28;20029;-81
2023/12/01 03:22:54;;;;;;;0.10;0.10;;;;;;;;;;5052527;28;20033;-81
2023/12/01 03:25:20;;;;;;;0.17;0.17;;;;;;;;;;5054241;28;20048;-81
2023/12/01 03:27:47;;;;;;;0.20;0.20;;;;;;;;;;5056076;28;20028;-81
2023/12/01 03:30:20;;;;;;;0.20;0.20;;;;;;;;;;5053646;28;20198;-82
2023/12/01 03:32:48;;;;;;;0.10;0.10;;;;;;;;;;5048303;28;20124;-81
2023/12/01 03:35:21;;;;;;;0.10;0.10;;;;;;;;;;5051860;28;20055;-80
2023/12/01 03:37:47;;;;;;;0.10;0.10;;;;;;;;;;5076768;28;20040;-81
2023/12/01 03:40:16;;;;;;;0.10;0.10;;;;;;;;;;5051785;28;20040;-81
2023/12/01 03:42:46;;;;;;;0.17;0.17;;;;;;;;;;5049653;28;20057;-82
2023/12/01 03:45:12;;;;;;;0.20;0.20;;;;;;;;;;5051828;28;20065;-80
2023/12/01 03:47:48;;;;;;;0.10;0.10;;;;;;;;;;5051619;28;20028;-81
2023/12/01 03:50:18;;;;;;;0.20;0.20;;;;;;;;;;5048596;28;20101;-81
2023/12/01 03:52:45;;;;;;;0.20;0.20;;;;;;;;;;5048614;28;20087;-81
2023/12/01 03:55:12;;;;;;;0.17;0.17;;;;;;;;;;5052667;28;20095;-81
2023/12/01 03:57:38;;;;;;;0.10;0.10;;;;;;;;;;5053309;28;20041;-80
2023/12/01 04:00:08;;;;;;;0.15;0.15;;;;;;;;;;5053513;28;20039;-80
2023/12/01 04:02:41;;;;;;;0.10;0.10;;;;;;;;;;5051822;28;20046;-81
2023/12/01 04:05:08;;;;;;;0.13;0.13;;;;;;;;;;5049537;28;20039;-81
2023/12/01 04:07:34;;;;;;;0.10;0.10;;;;;;;;;;5053177;28;20029;-82
2023/12/01 04:10:00;;;;;;;0.10;0.10;;;;;;;;;;5051644;28;20090;-82
2023/12/01 04:12:25;;;;;;;0.10;0.10;;;;;;;;;;5049153;28;20043;-80
2023/12/01 04:14:51;;;;;;;0.10;0.10;;;;;;;;;;5050338;28;20044;-81
2023/12/01 04:17:19;;;;;;;0.10;0.10;;;;;;;;;;5049135;28;20021;-81
2023/12/01 04:19:46;;;;;;;0.10;0.10;;;;;;;;;;5051377;28;20025;-81
2023/12/01 04:22:12;;;;;;;0.20;0.20;;;;;;;;;;5053731;28;20024;-81
2023/12/01 04:24:37;;;;;;;0.20;0.20;;;;;;;;;;5048780;28;20029;-83
2023/12/01 04:27:04;;;;;;;0.10;0.10;;;;;;;;;;5052044;28;20128;-83
2023/12/01 04:29:30;;;;;;;0.10;0.10;;;;;;;;;;5053814;28;20088;-81
2023/12/01 04:31:59;;;;;;;0.15;0.15;;;;;;;;;;5049907;28;20021;-81
2023/12/01 04:34:26;;;;;;;0.10;0.10;;;;;;;;;;5053033;28;20874;-82
2023/12/01 04:36:54;;;;;;;0.15;0.15;;;;;;;;;;5051522;28;20499;-82
2023/12/01 04:39:20;;;;;;;0.20;0.20;;;;;;;;;;5054780;28;20029;-81
2023/12/01 04:41:52;;;;;;;0.10;0.10;;;;;;;;;;5051146;28;20032;-81
2023/12/01 04:44:17;;;;;;;0.05;0.05;;;;;;;;;;5049050;28;20035;-82
2023/12/01 04:46:43;;;;;;;0.10;0.10;;;;;;;;;;5052631;28;20392;-81
2023/12/01 04:49:08;;;;;;;0.10;0.10;;;;;;;;;;5053200;28;20021;-83
2023/12/01 04:51:38;;;;;;;0.10;0.10;;;;;;;;;;5050885;28;20388;-81
2023/12/01 04:54:07;;;;;;;0.10;0.10;;;;;;;;;;5050848;28;20123;-83
2023/12/01 04:56:33;;;;;;;0.17;0.17;;;;;;;;;;5052782;28;20037;-81
2023/12/01 04:59:03;;;;;;;0.20;0.20;;;;;;;;;;5050956;28;20029;-81
2023/12/01 05:01:35;;;;;;;0.13;0.13;;;;;;;;;;5055394;28;20024;-83
2023/12/01 05:04:01;;;;;;;0.15;0.15;;;;;;;;;;5051893;28;20389;-82
2023/12/01 05:06:26;;;;;;;0.20;0.20;;;;;;;;;;5054091;28;20438;-82
2023/12/01 05:08:52;;;;;;;0.10;0.10;;;;;;;;;;5057581;28;20158;-82
2023/12/01 05:11:17;;;;;;;0.10;0.10;;;;;;;;;;5054778;28;20476;-81
2023/12/01 05:13:43;;;;;;;0.10;0.10;;;;;;;;;;5050477;28;20108;-80
2023/12/01 05:16:12;;;;;;;0.10;0.10;;;;;;;;;;5049931;28;20098;-81
2023/12/01 05:18:37;;;;;;;0.10;0.10;;;;;;;;;;5056326;28;21747;-81
2023/12/01 05:21:08;;;;;;;0.10;0.10;;;;;;;;;;5056352;28;20029;-82
2023/12/01 05:23:34;;;;;;;0.10;0.10;;;;;;;;;;5058005;28;20025;-83
2023/12/01 05:25:59;;;;;;;0.10;0.10;;;;;;;;;;5057183;28;20058;-80
2023/12/01 05:28:27;;;;;;;0.10;0.10;;;;;;;;;;5054175;28;20171;-80
2023/12/01 05:30:54;;;;;;;0.10;0.10;;;;;;;;;;5052979;28;20032;-81
2023/12/01 05:33:22;;;;;;;0.10;0.10;;;;;;;;;;5052474;28;20035;-81
2023/12/01 05:35:47;;;;;;;0.10;0.10;;;;;;;;;;5049424;28;20037;-79
2023/12/01 05:38:16;;;;;;;0.17;0.17;;;;;;;;;;5052094;28;20027;-79
2023/12/01 05:40:44;;;;;;;0.20;0.20;;;;;;;;;;5054769;28;20036;-80
2023/12/01 05:43:09;;;;;;;0.10;0.10;;;;;;;;;;5045607;28;20029;-80
2023/12/01 05:45:40;;;;;;;0.10;0.10;;;;;;;;;;5055118;28;20033;-80
2023/12/01 05:48:06;;;;;;;0.10;0.10;;;;;;;;;;5056441;28;20124;-79
2023/12/01 05:50:33;;;;;;;0.15;0.15;;;;;;;;;;5055961;28;20044;-80
2023/12/01 05:53:08;;;;;;;0.10;0.10;;;;;;;;;;5054746;28;20490;-81
2023/12/01 05:55:41;;;;;;;0.10;0.10;;;;;;;;;;5053101;28;20039;-81
2023/12/01 05:58:13;;;;;;;0.10;0.10;;;;;;;;;;5056745;28;20476;-80
2023/12/01 06:00:39;;;;;;;0.10;0.10;;;;;;;;;;5053057;28;20052;-81
2023/12/01 06:03:06;;;;;;;0.20;0.20;;;;;;;;;;5053239;28;20033;-79
2023/12/01 06:05:32;;;;;;;0.10;0.10;;;;;;;;;;5054752;28;20025;-79
2023/12/01 06:07:59;;;;;;;0.10;0.10;;;;;;;;;;5054533;28;20025;-80
2023/12/01 06:10:27;;;;;;;0.10;0.10;;;;;;;;;;5059223;28;20116;-80
2023/12/01 06:12:53;;;;;;;0.10;0.10;;;;;;;;;;5057207;28;20035;-82
2023/12/01 06:15:19;;;;;;;0.13;0.13;;;;;;;;;;5057170;28;20032;-81
2023/12/01 06:17:49;;;;;;;0.10;0.10;;;;;;;;;;5057602;28;20033;-80
2023/12/01 06:20:17;;;;;;;0.10;0.10;;;;;;;;;;5055306;28;20025;-80
2023/12/01 06:22:50;;;;;;;0.10;0.10;;;;;;;;;;5057529;28;20067;-80
2023/12/01 06:25:17;;;;;;;0.10;0.10;;;;;;;;;;5058835;28;20041;-80
2023/12/01 06:27:43;;;;;;;0.10;0.10;;;;;;;;;;5052379;28;20031;-80
2023/12/01 06:30:13;;;;;;;0.10;0.10;;;;;;;;;;5058270;28;20029;-80
2023/12/01 06:32:42;;;;;;;0.10;0.10;;;;;;;;;;5056127;28;20021;-79
2023/12/01 06:35:10;;;;;;;0.10;0.10;;;;;;;;;;5053765;28;20029;-81
2023/12/01 06:37:36;;;;;;;0.10;0.10;;;;;;;;;;5053528;28;20533;-82
2023/12/01 06:40:03;;;;;;;0.20;0.20;;;;;;;;;;5053561;28;20139;-81
2023/12/01 06:42:29;;;;;;;0.15;0.15;;;;;;;;;;5055848;28;20025;-81
2023/12/01 06:44:56;;;;;;;0.15;0.15;;;;;;;;;;5050079;28;20032;-82
2023/12/01 06:47:21;;;;;;;0.20;0.20;;;;;;;;;;5047877;28;20104;-81
2023/12/01 06:49:47;;;;;;;0.10;0.10;;;;;;;;;;5052779;28;20116;-80
2023/12/01 06:52:15;;;;;;;0.10;0.10;;;;;;;;;;5058379;28;20024;-80
2023/12/01 06:54:40;;;;;;;0.20;0.20;;;;;;;;;;5057132;28;20088;-80
2023/12/01 06:57:05;;;;;;;0.40;0.40;;;;;;;;;;5057976;28;20051;-81
2023/12/01 06:59:31;;;;;;;1.80;1.42;;;;;;;;;;5048969;28;20027;-80
2023/12/01 07:01:56;;;;;;;1.00;0.70;;;;;;;;;;5051556;28;20873;-79
2023/12/01 07:04:24;;;;;;;0.50;0.50;;;;;;;;;;5058174;28;20481;-80
2023/12/01 07:06:50;;;;;;;2.25;2.05;;;;;;;;;;5051168;28;20032;-79
2023/12/01 07:09:17;;;;;;;1.52;1.30;;;;;;;;;;5050397;28;20029;-79
2023/12/01 07:11:44;;;;;;;0.95;0.90;;;;;;;;;;5051903;28;20541;-80
2023/12/01 07:14:12;;;;;;;1.70;1.40;;;;;;;;;;5053026;28;20441;-81
2023/12/01 07:16:42;;;;;;;2.38;0.95;;;;;;;;;;5055677;28;20072;-83
2023/12/01 07:19:07;;;;;;;1.65;1.25;;;;;;;;;;5053981;28;20021;-80
2023/12/01 07:21:33;;;;;;;1.00;0.90;;;;;;;;;;5041528;28;20036;-81
2023/12/01 07:23:58;;;;;;;0.50;0.50;;;;;;;;;;5040294;28;20037;-81
2023/12/01 07:26:27;;;;;;;2.88;0.98;;;;;;;;;;5043690;28;20080;-80
2023/12/01 07:28:52;;;;;;;2.47;0.98;;;;;;;;;;5044400;28;21728;-80
2023/12/01 07:31:18;;;;;;;2.55;1.85;;;;;;;;;;5044154;28;20048;-80
2023/12/01 07:33:43;;;;;;;1.65;1.40;;;;;;;;;;5043025;28;20032;-80
2023/12/01 07:36:09;;;;;;;2.75;1.58;;;;;;;;;;5046159;28;20036;-81
2023/12/01 07:38:35;;;;;;;0.82;0.57;;;;;;;;;;5047309;28;20116;-81
2023/12/01 07:41:01;;;;;;;0.63;0.57;;;;;;;;;;5043763;28;20455;-80
2023/12/01 07:43:26;;;;;;;1.50;1.40;;;;;;;;;;5045281;28;20033;-79
2023/12/01 07:45:52;;;;;;;1.30;0.73;;;;;;;;;;5046674;28;20040;-81
2023/12/01 07:48:17;;;;;;;1.95;1.75;;;;;;;;;;5050016;28;20025;-81
2023/12/01 07:50:45;;;;;;;1.17;1.08;;;;;;;;;;5049173;28;20024;-81
2023/12/01 07:53:10;;;;;;;2.25;1.63;;;;;;;;;;5053220;28;20487;-80
2023/12/01 07:55:36;;;;;;;6.22;1.25;;;;;;;;;;5057771;28;20101;-80
2023/12/01 07:58:01;;;;;;;0.95;0.82;;;;;;;;;;5055200;28;20029;-80
2023/12/01 08:00:27;;;;;;;1.90;1.00;;;;;;;;;;5053077;28;21012;-78
2023/12/01 08:02:56;;;;;;;3.13;1.50;;;;;;;;;;5057964;28;20028;-80
2023/12/01 08:05:23;;;;;;;2.70;1.83;;;;;;;;;;5057990;28;20107;-79
2023/12/01 08:07:51;;;;;;;2.10;1.38;;;;;;;;;;5056766;28;20288;-81
2023/12/01 08:10:21;;;;;;;4.80;1.92;;;;;;;;;;5053244;28;20033;-79
2023/12/01 08:12:48;;;;;;;4.43;1.60;;;;;;;;;;5053488;28;20069;-79
2023/12/01 08:15:14;;;;;;;2.30;2.10;;;;;;;;;;5049248;28;20025;-78
2023/12/01 08:17:40;;;;;;;2.95;2.33;;;;;;;;;;5055205;28;20021;-80
2023/12/01 08:20:07;;;;;;;3.95;2.35;;;;;;;;;;5052873;28;20025;-81
2023/12/01 08:22:37;;;;;;;1.30;1.20;;;;;;;;;;5050141;28;20090;-82
2023/12/01 08:25:03;;;;;;;1.05;1.05;;;;;;;;;;5049995;28;20059;-80
2023/12/01 08:27:28;;;;;;;3.03;1.75;;;;;;;;;;5061197;28;20029;-81
2023/12/01 08:29:54;;;;;;;4.15;1.73;;;;;;;;;;5051786;28;20094;-81
2023/12/01 08:32:19;;;;;;;2.88;1.88;;;;;;;;;;5050969;28;20025;-78
2023/12/01 08:34:45;;;;;;;2.25;1.70;;;;;;;;;;5049985;28;20025;-79
2023/12/01 08:37:10;;;;;;;2.67;1.90;;;;;;;;;;5053776;28;20029;-81
2023/12/01 08:39:36;;;;;;;3.75;1.88;;;;;;;;;;5061043;28;20072;-80
2023/12/01 08:42:01;;;;;;;3.20;2.03;;;;;;;;;;5049592;28;20032;-81
2023/12/01 08:44:28;;;;;;;2.72;2.25;;;;;;;;;;5050372;28;20056;-80
2023/12/01 08:46:53;;;;;;;4.82;2.45;;;;;;;;;;5050482;28;20028;-81
2023/12/01 08:49:19;;;;;;;2.63;1.63;;;;;;;;;;5057231;28;20028;-81
2023/12/01 08:51:44;;;;;;;6.15;2.03;;;;;;;;;;5057357;28;20037;-80
2023/12/01 08:54:10;;;;;;;5.50;3.08;;;;;;;;;;5048730;28;20508;-81
2023/12/01 08:56:35;;;;;;;5.53;2.15;;;;;;;;;;5053182;28;20021;-80
2023/12/01 08:59:01;;;;;;;1.38;1.27;;;;;;;;;;5057889;28;20028;-80
2023/12/01 09:01:27;;;;;;;2.10;1.58;;;;;;;;;;5054771;28;20047;-83
2023/12/01 09:03:52;;;;;;;1.60;1.50;;;;;;;;;;5056716;28;20035;-85
2023/12/01 09:06:18;;;;;;;3.47;1.40;;;;;;;;;;5060006;28;20032;-79
2023/12/01 09:08:43;;;;;;;2.22;1.73;;;;;;;;;;5056725;28;20545;-77
2023/12/01 09:11:09;;;;;;;2.17;1.48;;;;;;;;;;5060929;28;20059;-78
2023/12/01 09:13:36;;;;;;;1.58;1.08;;;;;;;;;;5053357;28;20033;-78
2023/12/01 09:16:02;;;;;;;0.65;0.65;;;;;;;;;;5055542;28;20047;-77
2023/12/01 09:18:29;;;;;;;2.20;1.17;;;;;;;;;;5061268;28;20417;-78
2023/12/01 09:20:55;;;;;;;2.53;1.40;;;;;;;;;;5057875;28;20473;-79
2023/12/01 09:23:20;;;;;;;3.10;1.20;;;;;;;;;;5059513;28;20797;-78
2023/12/01 09:25:46;;;;;;;1.45;1.15;;;;;;;;;;5049478;28;20098;-80
2023/12/01 09:28:12;;;;;;;2.72;1.17;;;;;;;;;;5053322;28;20029;-79
2023/12/01 09:30:38;;;;;;;1.35;1.05;;;;;;;;;;5058910;28;20020;-78
2023/12/01 09:33:03;;;;;;;2.30;1.30;;;;;;;;;;5058910;28;20036;-78
2023/12/01 09:35:29;;;;;;;5.38;2.20;;;;;;;;;;5052964;28;20024;-79
2023/12/01 09:37:54;;;;;;;5.70;3.58;;;;;;;;;;5061177;28;20048;-79
2023/12/01 09:40:21;;;;;;;2.38;1.17;;;;;;;;;;5055351;28;20030;-78
2023/12/01 09:42:48;;;;;;;2.13;1.38;;;;;;;;;;5060629;28;20025;-78
2023/12/01 09:45:20;;;;;;;2.40;1.23;;;;;;;;;;5061139;28;20420;-79
2023/12/01 09:47:51;;;;;;;1.13;0.65;;;;;;;;;;5054706;28;20021;-78
2023/12/01 09:50:18;;;;;;;1.52;1.40;;;;;;;;;;5055447;28;20025;-79
2023/12/01 09:52:44;;;;;;;0.73;0.57;;;;;;;;;;5055988;28;20033;-80
2023/12/01 09:55:10;;;;;;;1.52;1.10;;;;;;;;;;5060092;28;20383;-79
2023/12/01 09:57:37;;;;;;;1.42;1.05;;;;;;;;;;5052306;28;20037;-79
2023/12/01 10:03:24;;;;;;;3.55;2.03;;;;;;;;;;5048551;28;20524;-79
2023/12/01 10:05:50;;;;;;;2.30;1.38;;;;;;;;;;5049199;28;20048;-81
2023/12/01 10:08:16;;;;;;;1.10;0.88;;;;;;;;;;5054539;28;20143;-80
2023/12/01 10:10:42;;;;;;;1.38;1.13;;;;;;;;;;5054407;28;20031;-79
2023/12/01 10:13:07;;;;;;;0.88;0.85;;;;;;;;;;5059361;28;20451;-81
2023/12/01 10:15:38;;;;;;;1.60;0.98;;;;;;;;;;5054755;28;20429;-78
2023/12/01 10:18:19;;;;;;;1.17;1.08;;;;;;;;;;5053529;28;20032;-78
2023/12/01 10:21:07;;;;;;;0.60;0.60;;;;;;;;;;5051101;28;20481;-78
2023/12/01 10:23:33;;;;;;;0.60;0.45;;;;;;;;;;5051815;28;20033;-78
2023/12/01 10:26:03;;;;;;;2.90;1.67;;;;;;;;;;5058890;28;20489;-80
2023/12/01 10:28:42;;;;;;;;;;;;;;;;;;5055924;28;20090;-78
2023/12/01 10:31:09;;;;;;;1.08;0.60;;;;;;;;;;5055432;28;19955;-78
2023/12/01 10:33:35;;;;;;;1.20;0.75;;;;;;;;;;5055232;28;20342;-78
2023/12/01 10:36:01;;;;;;;0.90;0.77;;;;;;;;;;5048947;28;20033;-78
2023/12/01 10:38:27;;;;;;;0.82;0.75;;;;;;;;;;5052740;28;20475;-78
2023/12/01 10:40:54;;;;;;;3.78;1.50;;;;;;;;;;5053862;28;20021;-79
2023/12/01 10:43:21;;;;;;;1.17;1.08;;;;;;;;;;5059252;28;20388;-78
2023/12/01 10:45:49;;;;;;;1.52;1.27;;;;;;;;;;5055449;28;20111;-77
2023/12/01 10:48:17;;;;;;;2.38;1.05;;;;;;;;;;5047797;28;20741;-78
2023/12/01 10:50:43;;;;;;;1.15;1.08;;;;;;;;;;5057944;28;20037;-76
2023/12/01 10:53:10;;;;;;;2.60;1.60;;;;;;;;;;5054340;28;20052;-78
2023/12/01 10:55:36;;;;;;;1.88;1.38;;;;;;;;;;5056476;28;20028;-78
2023/12/01 10:58:07;;;;;;;3.17;0.85;;;;;;;;;;5059028;28;20028;-80
2023/12/01 11:00:33;;;;;;;3.47;1.20;;;;;;;;;;5056475;28;20048;-78
2023/12/01 11:03:03;;;;;;;4.70;2.28;;;;;;;;;;5056356;28;20512;-76
2023/12/01 11:05:41;;;;;;;6.65;1.65;;;;;;;;;;5054496;28;20124;-81
2023/12/01 11:08:10;;;;;;;2.90;1.35;;;;;;;;;;5050207;28;20029;-81
2023/12/01 11:10:59;;;;;;;3.30;1.88;;;;;;;;;;5050504;28;20029;-79
2023/12/01 11:13:36;;;;;;;2.88;1.52;;;;;;;;;;5050343;28;20052;-79
2023/12/01 11:16:02;;;;;;;2.58;1.92;;;;;;;;;;5057241;28;20033;-78
2023/12/01 11:18:28;;;;;;;3.30;1.67;;;;;;;;;;5053718;28;20035;-78
2023/12/01 11:20:56;;;;;;;2.35;1.10;;;;;;;;;;5062672;28;20064;-80
2023/12/01 11:23:24;;;;;;;2.38;1.45;;;;;;;;;;5053540;28;20044;-77
2023/12/01 11:25:56;;;;;;;3.78;1.70;;;;;;;;;;5061099;28;20053;-79
2023/12/01 11:28:42;;;;;;;2.63;1.70;;;;;;;;;;5057157;28;20037;-78
2023/12/01 11:31:15;;;;;;;0.98;0.88;;;;;;;;;;5059684;28;20475;-78
2023/12/01 11:33:55;;;;;;;2.42;1.67;;;;;;;;;;5051444;28;20025;-78
2023/12/01 11:36:22;;;;;;;1.23;0.98;;;;;;;;;;5052143;28;20041;-79
2023/12/01 11:39:20;;;;;;;1.23;0.60;;;;;;;;;;5062285;28;20029;-79
2023/12/01 11:41:57;;;;;;;1.38;1.00;;;;;;;;;;5053468;28;20032;-77
2023/12/01 11:44:31;;;;;;;0.40;0.40;;;;;;;;;;5061817;28;20663;-79
2023/12/01 11:46:59;;;;;;;2.00;0.95;;;;;;;;;;5063146;28;20028;-78
2023/12/01 11:49:38;;;;;;;3.10;1.50;;;;;;;;;;5058245;28;20043;-78
2023/12/01 11:52:13;;;;;;;2.20;1.48;;;;;;;;;;5055582;28;20028;-78
2023/12/01 11:54:39;;;;;;;2.15;1.30;;;;;;;;;;5054350;28;20040;-79
2023/12/01 11:57:06;;;;;;;1.10;0.90;;;;;;;;;;5053784;28;20649;-78
2023/12/01 11:59:32;;;;;;;2.22;1.65;;;;;;;;;;5056183;28;20083;-79
2023/12/01 12:01:58;;;;;;;2.00;1.08;;;;;;;;;;5049564;28;20021;-78
2023/12/01 12:04:23;;;;;;;0.73;0.73;;;;;;;;;;5060194;28;20712;-78
2023/12/01 12:06:50;;;;;;;1.05;0.95;;;;;;;;;;5054746;28;20372;-77
2023/12/01 12:09:19;;;;;;;2.63;1.38;;;;;;;;;;5059340;28;20021;-80
2023/12/01 12:11:52;;;;;;;1.20;1.05;;;;;;;;;;5060639;28;20025;-79
2023/12/01 12:14:24;;;;;;;5.65;1.17;;;;;;;;;;5058973;28;20032;-80
2023/12/01 12:16:51;;;;;;;2.88;1.58;;;;;;;;;;5057898;28;20477;-80
2023/12/01 12:19:17;;;;;;;3.08;1.88;;;;;;;;;;5054664;28;20082;-79
2023/12/01 12:21:44;;;;;;;4.13;1.65;;;;;;;;;;5049848;28;20120;-79
2023/12/01 12:24:10;;;;;;;2.35;1.40;;;;;;;;;;5057764;28;20028;-81
2023/12/01 12:26:36;;;;;;;3.15;2.00;;;;;;;;;;5063015;28;20040;-78
2023/12/01 12:29:03;;;;;;;3.35;2.00;;;;;;;;;;5061210;28;20452;-78
2023/12/01 12:31:31;;;;;;;3.65;1.50;;;;;;;;;;5056597;28;20107;-79
2023/12/01 12:33:58;;;;;;;3.53;2.03;;;;;;;;;;5061716;28;20500;-79
2023/12/01 12:36:29;;;;;;;5.35;2.30;;;;;;;;;;5054424;28;20036;-78
2023/12/01 12:39:03;;;;;;;4.22;2.92;;;;;;;;;;5055284;28;20028;-78
2023/12/01 12:41:37;;;;;;;7.45;2.72;;;;;;;;;;5051763;28;20064;-78
2023/12/01 12:44:04;;;;;;;3.03;1.65;;;;;;;;;;5052544;28;20033;-79
2023/12/01 12:46:33;;;;;;;3.85;2.75;;;;;;;;;;5054129;28;20469;-79
2023/12/01 12:49:03;;;;;;;2.65;2.03;;;;;;;;;;5059703;28;20035;-79
2023/12/01 12:51:30;;;;;;;4.47;2.03;;;;;;;;;;5052257;28;20079;-77
2023/12/01 12:53:56;;;;;;;4.72;2.38;;;;;;;;;;5061678;28;20028;-77
2023/12/01 12:56:23;;;;;;;3.03;1.73;;;;;;;;;;5055254;28;20032;-78
2023/12/01 12:58:50;;;;;;;6.20;1.95;;;;;;;;;;5058548;28;20033;-79
2023/12/01 13:01:17;;;;;;;2.63;1.48;;;;;;;;;;5060885;28;20024;-78
2023/12/01 13:03:42;;;;;;;7.18;2.22;;;;;;;;;;5056909;28;20046;-78
2023/12/01 13:06:09;;;;;;;1.00;0.85;;;;;;;;;;5049221;28;20041;-76
2023/12/01 13:08:35;;;;;;;2.00;1.02;;;;;;;;;;5049788;28;20128;-78
2023/12/01 13:11:01;;;;;;;2.28;1.20;;;;;;;;;;5052511;28;20048;-78
2023/12/01 13:13:27;;;;;;;1.75;0.55;;;;;;;;;;5056131;28;20021;-79
2023/12/01 13:15:53;;;;;;;3.67;1.27;;;;;;;;;;5050585;28;20058;-80
2023/12/01 13:18:18;;;;;;;4.65;2.10;;;;;;;;;;5049301;28;20040;-78
2023/12/01 13:20:45;;;;;;;8.45;2.25;;;;;;;;;;5051294;28;20779;-79
2023/12/01 13:23:11;;;;;;;6.20;1.35;;;;;;;;;;5051706;28;20033;-77
2023/12/01 13:25:36;;;;;;;2.13;1.58;;;;;;;;;;5051356;28;20408;-78
2023/12/01 13:28:02;;;;;;;2.13;1.55;;;;;;;;;;5050587;28;20032;-79
2023/12/01 13:30:27;;;;;;;5.75;2.42;;;;;;;;;;5050221;28;20036;-78
2023/12/01 13:32:53;;;;;;;2.58;2.00;;;;;;;;;;5053531;28;20017;-78
2023/12/01 13:35:19;;;;;;;3.33;1.60;;;;;;;;;;5051227;28;20055;-78
2023/12/01 13:37:44;;;;;;;1.42;1.27;;;;;;;;;;5047287;28;20167;-79
2023/12/01 13:40:10;;;;;;;8.93;1.55;;;;;;;;;;5047325;28;20453;-80
2023/12/01 13:42:36;;;;;;;2.78;1.58;;;;;;;;;;5058121;28;20032;-80
2023/12/01 13:45:07;;;;;;;6.78;1.55;;;;;;;;;;5062292;28;20103;-80
2023/12/01 13:47:33;;;;;;;5.72;1.80;;;;;;;;;;5054671;28;20032;-80
2023/12/01 13:49:59;;;;;;;1.63;1.52;;;;;;;;;;5054610;28;20488;-80
2023/12/01 13:52:27;;;;;;;1.52;1.00;;;;;;;;;;5051912;28;20167;-78
2023/12/01 13:54:53;;;;;;;0.63;0.63;;;;;;;;;;5051291;28;20372;-78
2023/12/01 13:57:18;;;;;;;2.90;1.08;;;;;;;;;;5051586;28;20405;-78
2023/12/01 13:59:44;;;;;;;0.93;0.68;;;;;;;;;;5049064;28;20106;-78
2023/12/01 14:02:09;;;;;;;1.98;1.30;;;;;;;;;;5059348;28;20028;-79
2023/12/01 14:04:36;;;;;;;2.40;1.52;;;;;;;;;;5053543;28;20385;-78
2023/12/01 14:07:04;;;;;;;2.65;1.73;;;;;;;;;;5048403;28;20042;-79
2023/12/01 14:09:30;;;;;;;1.05;0.80;;;;;;;;;;5045658;28;20124;-78
2023/12/01 14:11:55;;;;;;;2.17;1.23;;;;;;;;;;5047608;28;20452;-78
2023/12/01 14:14:20;;;;;;;1.73;1.40;;;;;;;;;;5054996;28;20119;-79
2023/12/01 14:16:47;;;;;;;0.75;0.65;;;;;;;;;;5048940;28;20028;-78
2023/12/01 14:19:12;;;;;;;1.05;0.93;;;;;;;;;;5052184;28;20116;-78
2023/12/01 14:21:38;;;;;;;1.48;1.08;;;;;;;;;;5058190;28;20108;-79
2023/12/01 14:24:03;;;;;;;0.80;0.80;;;;;;;;;;5058082;28;20043;-78
2023/12/01 14:26:28;;;;;;;2.15;1.60;;;;;;;;;;5052011;28;20049;-79
2023/12/01 14:28:54;;;;;;;1.35;0.80;;;;;;;;;;5055804;28;20045;-79
2023/12/01 14:31:19;;;;;;;2.08;1.20;;;;;;;;;;5052088;28;20087;-79
2023/12/01 14:33:45;;;;;;;1.33;0.52;;;;;;;;;;5058562;28;20032;-79
2023/12/01 14:36:10;;;;;;;1.30;1.13;;;;;;;;;;5055514;28;20025;-78
2023/12/01 14:38:37;;;;;;;1.40;1.20;;;;;;;;;;5060545;28;20117;-79
2023/12/01 14:41:03;;;;;;;1.73;1.15;;;;;;;;;;5057839;28;20071;-78
2023/12/01 14:43:28;;;;;;;0.65;0.63;;;;;;;;;;5057877;28;20499;-79
2023/12/01 14:45:54;;;;;;;1.13;0.90;;;;;;;;;;5063040;28;20032;-78
2023/12/01 14:48:19;;;;;;;0.80;0.75;;;;;;;;;;5055682;28;20033;-79
2023/12/01 14:50:49;;;;;;;1.75;1.40;;;;;;;;;;5061343;28;20033;-78